PWSweather.com
Personal Weather Stations
Station Observations
IBOURGOG6
IsSurTilleFR

IsSurTilleFR

Lat: 47.521958, Lon: 5.112544000000071

Elevation: 902

Station Type: WMR200

http://meteotille.tbdt.fr

Latest ConditionsUpdated 11:30:04 PM GMT+01:01 Thursday, Jul 20, 2017
Currently Today's Max Today's Min Today's Average
Temperature 63.9°F17.7°C 79.0°F26.1°C 63.9°F17.7°C 70.8°F21.6°C
Dew Point 55.0°F12.8°C 64.7°F18.2°C 50.6°F10.3°C 58.1°F14.5°C
Winds Calm Calm Calm Calm - Calm Calm
Wind Gusts -- -- - -
Humidity 73% 90% 42% 66%
Pressure 28.94 in980.0 mb 28.97 in981.0 mb 28.88 in978.0 mb -
Hour Temp Dew Point Humidity Winds Wind Gusts Pressure Precip Precip Rate Daily Precip Total
11:30 PM 63.9°F17.7°C 55.0°F12.8°C 73% Calm Calm -- 28.94 in980.0 mb 0.00 in0.0 mm 0.00 in0.0 mm 0.17 in4.3 mm
11:20 PM 64.0°F17.8°C 54.8°F12.7°C 72% Calm Calm -- 28.94 in980.0 mb 0.00 in0.0 mm 0.00 in0.0 mm 0.17 in4.3 mm
11:10 PM 63.9°F17.7°C 54.3°F12.4°C 71% Calm Calm -- 28.97 in981.0 mb 0.00 in0.0 mm 0.00 in0.0 mm 0.17 in4.3 mm
11:00 PM 64.6°F18.1°C 54.6°F12.6°C 70% Calm Calm -- 28.97 in981.0 mb 0.00 in0.0 mm 0.00 in0.0 mm 0.17 in4.3 mm
10:50 PM 64.8°F18.2°C 54.3°F12.4°C 69% Calm Calm -- 28.97 in981.0 mb 0.00 in0.0 mm 0.00 in0.0 mm 0.17 in4.3 mm
10:40 PM 65.1°F18.4°C 54.7°F12.6°C 69% Calm Calm -- 28.97 in981.0 mb 0.00 in0.0 mm 0.00 in0.0 mm 0.17 in4.3 mm
10:30 PM 65.7°F18.7°C 54.4°F12.4°C 67% Calm Calm -- 28.97 in981.0 mb 0.00 in0.0 mm 0.00 in0.0 mm 0.17 in4.3 mm
10:20 PM 66.4°F19.1°C 55.1°F12.8°C 67% Calm Calm -- 28.97 in981.0 mb 0.00 in0.0 mm 0.00 in0.0 mm 0.17 in4.3 mm
10:10 PM 66.7°F19.3°C 55.0°F12.8°C 66% Calm Calm -- 28.97 in981.0 mb 0.00 in0.0 mm 0.00 in0.0 mm 0.17 in4.3 mm
10:00 PM 67.5°F19.7°C 55.7°F13.2°C 66% Calm Calm -- 28.97 in981.0 mb 0.00 in0.0 mm 0.00 in0.0 mm 0.17 in4.3 mm
09:50 PM 67.3°F19.6°C 55.5°F13.1°C 66% Calm Calm -- 28.97 in981.0 mb 0.00 in0.0 mm 0.00 in0.0 mm 0.17 in4.3 mm
09:40 PM 67.1°F19.5°C 54.1°F12.3°C 63% Calm Calm -- 28.97 in981.0 mb 0.00 in0.0 mm 0.00 in0.0 mm 0.17 in4.3 mm
09:30 PM 67.5°F19.7°C 53.5°F11.9°C 61% Calm Calm -- 28.97 in981.0 mb 0.00 in0.0 mm 0.00 in0.0 mm 0.17 in4.3 mm
09:20 PM 68.2°F20.1°C 53.3°F11.8°C 59% Calm Calm -- 28.97 in981.0 mb 0.00 in0.0 mm 0.00 in0.0 mm 0.17 in4.3 mm
09:10 PM 68.9°F20.5°C 53.5°F11.9°C 58% Calm Calm -- 28.97 in981.0 mb 0.00 in0.0 mm 0.00 in0.0 mm 0.17 in4.3 mm
09:00 PM 69.6°F20.9°C 53.2°F11.8°C 56% Calm Calm -- 28.97 in981.0 mb 0.00 in0.0 mm 0.00 in0.0 mm 0.17 in4.3 mm
08:50 PM 70.3°F21.3°C 52.9°F11.6°C 54% Calm Calm -- 28.94 in980.0 mb 0.00 in0.0 mm 0.00 in0.0 mm 0.17 in4.3 mm
08:40 PM 70.9°F21.6°C 52.9°F11.6°C 53% Calm Calm -- 28.97 in981.0 mb 0.00 in0.0 mm 0.00 in0.0 mm 0.17 in4.3 mm
08:30 PM 71.4°F21.9°C 52.3°F11.3°C 51% Calm Calm -- 28.97 in981.0 mb 0.00 in0.0 mm 0.00 in0.0 mm 0.17 in4.3 mm
08:20 PM 71.6°F22.0°C 52.0°F11.1°C 50% Calm Calm -- 28.97 in981.0 mb 0.00 in0.0 mm 0.00 in0.0 mm 0.17 in4.3 mm
08:10 PM 72.0°F22.2°C 51.8°F11.0°C 49% Calm Calm -- 28.97 in981.0 mb 0.00 in0.0 mm 0.00 in0.0 mm 0.17 in4.3 mm
08:00 PM 72.3°F22.4°C 51.5°F10.8°C 48% Calm Calm -- 28.97 in981.0 mb 0.00 in0.0 mm 0.00 in0.0 mm 0.17 in4.3 mm
07:50 PM 72.5°F22.5°C 51.1°F10.6°C 47% Calm Calm -- 28.97 in981.0 mb 0.00 in0.0 mm 0.00 in0.0 mm 0.17 in4.3 mm
07:40 PM 72.9°F22.7°C 50.9°F10.5°C 46% Calm Calm -- 28.97 in981.0 mb 0.00 in0.0 mm 0.00 in0.0 mm 0.17 in4.3 mm
07:30 PM 73.2°F22.9°C 51.2°F10.7°C 46% Calm Calm -- 28.97 in981.0 mb 0.00 in0.0 mm 0.00 in0.0 mm 0.17 in4.3 mm
07:20 PM 73.6°F23.1°C 50.9°F10.5°C 45% Calm Calm -- 28.97 in981.0 mb 0.00 in0.0 mm 0.00 in0.0 mm 0.17 in4.3 mm
07:10 PM 73.9°F23.3°C 50.6°F10.3°C 44% Calm Calm -- 28.97 in981.0 mb 0.00 in0.0 mm 0.00 in0.0 mm 0.17 in4.3 mm
07:00 PM 74.7°F23.7°C 51.3°F10.7°C 44% Calm Calm -- 28.97 in981.0 mb 0.00 in0.0 mm 0.00 in0.0 mm 0.17 in4.3 mm
06:50 PM 74.8°F23.8°C 51.5°F10.8°C 44% Calm Calm -- 28.97 in981.0 mb 0.00 in0.0 mm 0.00 in0.0 mm 0.17 in4.3 mm
06:40 PM 74.8°F23.8°C 51.5°F10.8°C 44% Calm Calm -- 28.94 in980.0 mb 0.00 in0.0 mm 0.00 in0.0 mm 0.17 in4.3 mm
06:30 PM 75.0°F23.9°C 51.6°F10.9°C 44% Calm Calm -- 28.94 in980.0 mb 0.00 in0.0 mm 0.00 in0.0 mm 0.17 in4.3 mm
06:20 PM 75.6°F24.2°C 51.5°F10.8°C 43% Calm Calm -- 28.97 in981.0 mb 0.00 in0.0 mm 0.00 in0.0 mm 0.17 in4.3 mm
06:10 PM 76.1°F24.5°C 52.0°F11.1°C 43% Calm Calm -- 28.94 in980.0 mb 0.00 in0.0 mm 0.00 in0.0 mm 0.17 in4.3 mm
06:00 PM 76.6°F24.8°C 52.5°F11.4°C 43% Calm Calm -- 28.94 in980.0 mb 0.00 in0.0 mm 0.00 in0.0 mm 0.17 in4.3 mm
05:50 PM 76.8°F24.9°C 52.6°F11.4°C 43% Calm Calm -- 28.94 in980.0 mb 0.00 in0.0 mm 0.00 in0.0 mm 0.17 in4.3 mm
05:40 PM 77.2°F25.1°C 52.3°F11.3°C 42% Calm Calm -- 28.94 in980.0 mb 0.00 in0.0 mm 0.00 in0.0 mm 0.17 in4.3 mm
05:30 PM 77.4°F25.2°C 53.1°F11.7°C 43% Calm Calm -- 28.94 in980.0 mb 0.00 in0.0 mm 0.00 in0.0 mm 0.17 in4.3 mm
05:20 PM 78.1°F25.6°C 54.4°F12.4°C 44% Calm Calm -- 28.97 in981.0 mb 0.00 in0.0 mm 0.00 in0.0 mm 0.17 in4.3 mm
05:10 PM 78.3°F25.7°C 54.6°F12.6°C 44% Calm Calm -- 28.94 in980.0 mb 0.00 in0.0 mm 0.00 in0.0 mm 0.17 in4.3 mm
05:00 PM 78.3°F25.7°C 54.6°F12.6°C 44% Calm Calm -- 28.94 in980.0 mb 0.00 in0.0 mm 0.00 in0.0 mm 0.17 in4.3 mm
04:50 PM 77.9°F25.5°C 54.2°F12.3°C 44% Calm Calm -- 28.97 in981.0 mb 0.00 in0.0 mm 0.00 in0.0 mm 0.17 in4.3 mm
04:40 PM 77.7°F25.4°C 54.1°F12.3°C 44% Calm Calm -- 28.97 in981.0 mb 0.00 in0.0 mm 0.00 in0.0 mm 0.17 in4.3 mm
04:30 PM 78.4°F25.8°C 54.7°F12.6°C 44% Calm Calm -- 28.97 in981.0 mb 0.00 in0.0 mm 0.00 in0.0 mm 0.17 in4.3 mm
04:20 PM 78.8°F26.0°C 55.0°F12.8°C 44% Calm Calm -- 28.94 in980.0 mb 0.00 in0.0 mm 0.00 in0.0 mm 0.17 in4.3 mm
04:10 PM 79.0°F26.1°C 55.2°F12.9°C 44% Calm Calm -- 28.94 in980.0 mb 0.00 in0.0 mm 0.00 in0.0 mm 0.17 in4.3 mm
04:00 PM 78.1°F25.6°C 55.0°F12.8°C 45% Calm Calm -- 28.94 in980.0 mb 0.00 in0.0 mm 0.00 in0.0 mm 0.17 in4.3 mm
03:50 PM 77.4°F25.2°C 54.4°F12.4°C 45% Calm Calm -- 28.94 in980.0 mb 0.00 in0.0 mm 0.00 in0.0 mm 0.17 in4.3 mm
03:40 PM 77.7°F25.4°C 54.1°F12.3°C 44% Calm Calm -- 28.94 in980.0 mb 0.00 in0.0 mm 0.00 in0.0 mm 0.17 in4.3 mm
03:30 PM 77.2°F25.1°C 54.2°F12.3°C 45% Calm Calm -- 28.94 in980.0 mb 0.00 in0.0 mm 0.00 in0.0 mm 0.17 in4.3 mm
03:20 PM 77.5°F25.3°C 54.5°F12.5°C 45% Calm Calm -- 28.94 in980.0 mb 0.00 in0.0 mm 0.00 in0.0 mm 0.17 in4.3 mm
03:10 PM 77.2°F25.1°C 55.4°F13.0°C 47% Calm Calm -- 28.94 in980.0 mb 0.00 in0.0 mm 0.00 in0.0 mm 0.17 in4.3 mm
03:00 PM 75.9°F24.4°C 54.2°F12.3°C 47% Calm Calm -- 28.94 in980.0 mb 0.00 in0.0 mm 0.00 in0.0 mm 0.17 in4.3 mm
02:50 PM 76.1°F24.5°C 55.0°F12.8°C 48% Calm Calm -- 28.94 in980.0 mb 0.00 in0.0 mm 0.00 in0.0 mm 0.17 in4.3 mm
02:40 PM 75.7°F24.3°C 54.7°F12.6°C 48% Calm Calm -- 28.94 in980.0 mb 0.00 in0.0 mm 0.00 in0.0 mm 0.17 in4.3 mm
02:30 PM 75.2°F24.0°C 55.8°F13.2°C 51% Calm Calm -- 28.94 in980.0 mb 0.00 in0.0 mm 0.00 in0.0 mm 0.17 in4.3 mm
02:20 PM 75.2°F24.0°C 56.9°F13.8°C 53% Calm Calm -- 28.94 in980.0 mb 0.00 in0.0 mm 0.00 in0.0 mm 0.17 in4.3 mm
02:10 PM 74.8°F23.8°C 56.0°F13.3°C 52% Calm Calm -- 28.97 in981.0 mb 0.00 in0.0 mm 0.00 in0.0 mm 0.17 in4.3 mm
02:00 PM 74.8°F23.8°C 56.0°F13.3°C 52% Calm Calm -- 28.97 in981.0 mb 0.00 in0.0 mm 0.00 in0.0 mm 0.17 in4.3 mm
01:50 PM 74.8°F23.8°C 54.9°F12.7°C 50% Calm Calm -- 28.94 in980.0 mb 0.00 in0.0 mm 0.00 in0.0 mm 0.17 in4.3 mm
01:40 PM 76.1°F24.5°C 58.2°F14.6°C 54% Calm Calm -- 28.94 in980.0 mb 0.00 in0.0 mm 0.00 in0.0 mm 0.17 in4.3 mm
01:30 PM 75.0°F23.9°C 58.3°F14.6°C 56% Calm Calm -- 28.94 in980.0 mb 0.00 in0.0 mm 0.00 in0.0 mm 0.17 in4.3 mm
01:20 PM 74.1°F23.4°C 57.9°F14.4°C 57% Calm Calm -- 28.97 in981.0 mb 0.00 in0.0 mm 0.00 in0.0 mm 0.17 in4.3 mm
01:10 PM 73.8°F23.2°C 58.1°F14.5°C 58% Calm Calm -- 28.94 in980.0 mb 0.00 in0.0 mm 0.00 in0.0 mm 0.17 in4.3 mm
01:00 PM 73.2°F22.9°C 57.1°F13.9°C 57% Calm Calm -- 28.94 in980.0 mb 0.00 in0.0 mm 0.00 in0.0 mm 0.17 in4.3 mm
12:50 PM 73.4°F23.0°C 56.7°F13.7°C 56% Calm Calm -- 28.94 in980.0 mb 0.00 in0.0 mm 0.00 in0.0 mm 0.17 in4.3 mm
12:40 PM 74.3°F23.5°C 57.1°F13.9°C 55% Calm Calm -- 28.94 in980.0 mb 0.00 in0.0 mm 0.00 in0.0 mm 0.17 in4.3 mm
12:30 PM 75.0°F23.9°C 57.8°F14.3°C 55% Calm Calm -- 28.94 in980.0 mb 0.00 in0.0 mm 0.00 in0.0 mm 0.17 in4.3 mm
12:20 PM 75.0°F23.9°C 57.8°F14.3°C 55% Calm Calm -- 28.94 in980.0 mb 0.00 in0.0 mm 0.00 in0.0 mm 0.17 in4.3 mm
12:10 PM 74.8°F23.8°C 58.1°F14.5°C 56% Calm Calm -- 28.94 in980.0 mb 0.00 in0.0 mm 0.00 in0.0 mm 0.17 in4.3 mm
12:00 PM 74.7°F23.7°C 59.4°F15.2°C 59% Calm Calm -- 28.94 in980.0 mb 0.00 in0.0 mm 0.00 in0.0 mm 0.17 in4.3 mm
11:50 AM 73.9°F23.3°C 60.1°F15.6°C 62% Calm Calm -- 28.94 in980.0 mb 0.00 in0.0 mm 0.00 in0.0 mm 0.17 in4.3 mm
11:40 AM 73.6°F23.1°C 60.2°F15.7°C 63% Calm Calm -- 28.91 in979.0 mb 0.00 in0.0 mm 0.00 in0.0 mm 0.17 in4.3 mm
11:30 AM 73.0°F22.8°C 61.4°F16.3°C 67% Calm Calm -- 28.91 in979.0 mb 0.00 in0.0 mm 0.00 in0.0 mm 0.17 in4.3 mm
11:20 AM 72.9°F22.7°C 61.7°F16.5°C 68% Calm Calm -- 28.91 in979.0 mb 0.00 in0.0 mm 0.00 in0.0 mm 0.17 in4.3 mm
11:10 AM 72.9°F22.7°C 61.3°F16.3°C 67% Calm Calm -- 28.91 in979.0 mb 0.00 in0.0 mm 0.00 in0.0 mm 0.17 in4.3 mm
11:00 AM 72.9°F22.7°C 60.8°F16.0°C 66% Calm Calm -- 28.91 in979.0 mb 0.00 in0.0 mm 0.00 in0.0 mm 0.17 in4.3 mm
10:50 AM 72.3°F22.4°C 59.9°F15.5°C 65% Calm Calm -- 28.91 in979.0 mb 0.00 in0.0 mm 0.00 in0.0 mm 0.17 in4.3 mm
10:40 AM 72.5°F22.5°C 60.1°F15.6°C 65% Calm Calm -- 28.91 in979.0 mb 0.00 in0.0 mm 0.00 in0.0 mm 0.17 in4.3 mm
10:30 AM 72.9°F22.7°C 60.4°F15.8°C 65% Calm Calm -- 28.91 in979.0 mb 0.00 in0.0 mm 0.00 in0.0 mm 0.17 in4.3 mm
10:20 AM 72.9°F22.7°C 60.8°F16.0°C 66% Calm Calm -- 28.91 in979.0 mb 0.00 in0.0 mm 0.00 in0.0 mm 0.17 in4.3 mm
10:10 AM 72.9°F22.7°C 60.4°F15.8°C 65% Calm Calm -- 28.91 in979.0 mb 0.00 in0.0 mm 0.00 in0.0 mm 0.17 in4.3 mm
10:00 AM 72.5°F22.5°C 61.3°F16.3°C 68% Calm Calm -- 28.91 in979.0 mb 0.00 in0.0 mm 0.00 in0.0 mm 0.17 in4.3 mm
09:50 AM 72.1°F22.3°C 61.8°F16.6°C 70% Calm Calm -- 28.91 in979.0 mb 0.00 in0.0 mm 0.00 in0.0 mm 0.17 in4.3 mm
09:40 AM 71.6°F22.0°C 62.9°F17.2°C 74% Calm Calm -- 28.91 in979.0 mb 0.00 in0.0 mm 0.00 in0.0 mm 0.17 in4.3 mm
09:30 AM 71.1°F21.7°C 63.1°F17.3°C 76% Calm Calm -- 28.91 in979.0 mb 0.00 in0.0 mm 0.00 in0.0 mm 0.17 in4.3 mm
09:20 AM 70.7°F21.5°C 63.9°F17.7°C 79% Calm Calm -- 28.91 in979.0 mb 0.00 in0.0 mm 0.00 in0.0 mm 0.17 in4.3 mm
09:10 AM 70.3°F21.3°C 64.2°F17.9°C 81% Calm Calm -- 28.91 in979.0 mb 0.00 in0.0 mm 0.00 in0.0 mm 0.17 in4.3 mm
09:00 AM 70.2°F21.2°C 64.1°F17.8°C 81% Calm Calm -- 28.91 in979.0 mb 0.00 in0.0 mm 0.00 in0.0 mm 0.17 in4.3 mm
08:50 AM 70.0°F21.1°C 64.6°F18.1°C 83% Calm Calm -- 28.91 in979.0 mb 0.00 in0.0 mm 0.00 in0.0 mm 0.17 in4.3 mm
08:40 AM 69.3°F20.7°C 64.6°F18.1°C 85% Calm Calm -- 28.91 in979.0 mb 0.00 in0.0 mm 0.00 in0.0 mm 0.17 in4.3 mm
08:30 AM 68.7°F20.4°C 64.7°F18.2°C 87% Calm Calm -- 28.91 in979.0 mb 0.00 in0.0 mm 0.00 in0.0 mm 0.17 in4.3 mm
08:20 AM 68.4°F20.2°C 64.7°F18.2°C 88% Calm Calm -- 28.94 in980.0 mb 0.00 in0.0 mm 0.00 in0.0 mm 0.17 in4.3 mm
08:10 AM 68.0°F20.0°C 64.6°F18.1°C 89% Calm Calm -- 28.94 in980.0 mb 0.00 in0.0 mm 0.00 in0.0 mm 0.17 in4.3 mm
08:00 AM 67.8°F19.9°C 64.5°F18.1°C 89% Calm Calm -- 28.94 in980.0 mb 0.00 in0.0 mm 0.00 in0.0 mm 0.17 in4.3 mm
07:50 AM 67.5°F19.7°C 64.4°F18.0°C 90% Calm Calm -- 28.94 in980.0 mb 0.00 in0.0 mm 0.00 in0.0 mm 0.17 in4.3 mm
07:40 AM 67.1°F19.5°C 64.1°F17.8°C 90% Calm Calm -- 28.91 in979.0 mb 0.00 in0.0 mm 0.00 in0.0 mm 0.17 in4.3 mm
07:30 AM 66.9°F19.4°C 63.9°F17.7°C 90% Calm Calm -- 28.91 in979.0 mb 0.00 in0.0 mm 0.00 in0.0 mm 0.17 in4.3 mm
07:20 AM 66.7°F19.3°C 63.7°F17.6°C 90% Calm Calm -- 28.91 in979.0 mb 0.00 in0.0 mm 0.00 in0.0 mm 0.17 in4.3 mm
07:10 AM 66.4°F19.1°C 63.0°F17.2°C 89% Calm Calm -- 28.91 in979.0 mb 0.00 in0.0 mm 0.00 in0.0 mm 0.17 in4.3 mm
07:00 AM 66.2°F19.0°C 62.5°F16.9°C 88% Calm Calm -- 28.91 in979.0 mb 0.00 in0.0 mm 0.00 in0.0 mm 0.17 in4.3 mm
06:50 AM 66.2°F19.0°C 62.5°F16.9°C 88% Calm Calm -- 28.88 in978.0 mb 0.00 in0.0 mm 0.00 in0.0 mm 0.17 in4.3 mm
06:40 AM 66.2°F19.0°C 62.5°F16.9°C 88% Calm Calm -- 28.91 in979.0 mb 0.00 in0.0 mm 0.00 in0.0 mm 0.17 in4.3 mm
06:30 AM 66.6°F19.2°C 62.2°F16.8°C 86% Calm Calm -- 28.91 in979.0 mb 0.00 in0.0 mm 0.00 in0.0 mm 0.17 in4.3 mm
06:20 AM 66.4°F19.1°C 62.4°F16.9°C 87% Calm Calm -- 28.91 in979.0 mb 0.00 in0.0 mm 0.00 in0.0 mm 0.17 in4.3 mm
06:10 AM 66.4°F19.1°C 62.4°F16.9°C 87% Calm Calm -- 28.91 in979.0 mb 0.00 in0.0 mm 0.00 in0.0 mm 0.17 in4.3 mm
06:00 AM 66.0°F18.9°C 62.0°F16.7°C 87% Calm Calm -- 28.91 in979.0 mb 0.00 in0.0 mm 0.00 in0.0 mm 0.17 in4.3 mm
05:50 AM 66.0°F18.9°C 61.7°F16.5°C 86% Calm Calm -- 28.91 in979.0 mb 0.00 in0.0 mm 0.00 in0.0 mm 0.17 in4.3 mm
05:40 AM 66.4°F19.1°C 61.7°F16.5°C 85% Calm Calm -- 28.91 in979.0 mb 0.00 in0.0 mm 0.00 in0.0 mm 0.17 in4.3 mm
05:30 AM 66.4°F19.1°C 61.4°F16.3°C 84% Calm Calm -- 28.91 in979.0 mb 0.00 in0.0 mm 0.00 in0.0 mm 0.17 in4.3 mm
05:20 AM 66.6°F19.2°C 61.6°F16.4°C 84% Calm Calm -- 28.91 in979.0 mb 0.00 in0.0 mm 0.00 in0.0 mm 0.17 in4.3 mm
05:10 AM 66.6°F19.2°C 61.2°F16.2°C 83% Calm Calm -- 28.91 in979.0 mb 0.00 in0.0 mm 0.00 in0.0 mm 0.17 in4.3 mm
05:00 AM 66.9°F19.4°C 61.9°F16.6°C 84% Calm Calm -- 28.91 in979.0 mb 0.00 in0.0 mm 0.00 in0.0 mm 0.17 in4.3 mm
04:50 AM 66.6°F19.2°C 61.6°F16.4°C 84% Calm Calm -- 28.91 in979.0 mb 0.00 in0.0 mm 0.00 in0.0 mm 0.17 in4.3 mm
04:40 AM 66.6°F19.2°C 61.6°F16.4°C 84% Calm Calm -- 28.91 in979.0 mb 0.00 in0.0 mm 0.00 in0.0 mm 0.17 in4.3 mm
04:30 AM 66.7°F19.3°C 61.4°F16.3°C 83% Calm Calm -- 28.91 in979.0 mb 0.00 in0.0 mm 0.00 in0.0 mm 0.17 in4.3 mm
04:20 AM 66.7°F19.3°C 61.7°F16.5°C 84% Calm Calm -- 28.91 in979.0 mb 0.05 in1.3 mm 0.00 in0.0 mm 0.17 in4.3 mm
04:10 AM 66.6°F19.2°C 61.2°F16.2°C 83% Calm Calm -- 28.91 in979.0 mb 0.05 in1.3 mm 0.00 in0.0 mm 0.17 in4.3 mm
04:00 AM 66.7°F19.3°C 61.7°F16.5°C 84% Calm Calm -- 28.91 in979.0 mb 0.05 in1.3 mm 0.00 in0.0 mm 0.17 in4.3 mm
03:50 AM 66.7°F19.3°C 61.7°F16.5°C 84% Calm Calm -- 28.91 in979.0 mb 0.05 in1.3 mm 0.00 in0.0 mm 0.17 in4.3 mm
03:40 AM 66.9°F19.4°C 61.9°F16.6°C 84% Calm Calm -- 28.91 in979.0 mb 0.05 in1.3 mm 0.00 in0.0 mm 0.17 in4.3 mm
03:30 AM 66.9°F19.4°C 61.6°F16.4°C 83% Calm Calm -- 28.91 in979.0 mb 0.05 in1.3 mm 0.30 in7.6 mm 0.17 in4.3 mm
03:20 AM 67.1°F19.5°C 61.8°F16.6°C 83% Calm Calm -- 28.91 in979.0 mb 0.00 in0.0 mm 0.00 in0.0 mm 0.12 in3.0 mm
03:10 AM 66.9°F19.4°C 61.9°F16.6°C 84% Calm Calm -- 28.91 in979.0 mb 0.00 in0.0 mm 0.00 in0.0 mm 0.12 in3.0 mm
03:00 AM 66.7°F19.3°C 61.4°F16.3°C 83% Calm Calm -- 28.91 in979.0 mb 0.00 in0.0 mm 0.00 in0.0 mm 0.12 in3.0 mm
02:50 AM 66.9°F19.4°C 62.3°F16.8°C 85% Calm Calm -- 28.88 in978.0 mb 0.00 in0.0 mm 0.00 in0.0 mm 0.12 in3.0 mm
02:40 AM 67.1°F19.5°C 61.4°F16.3°C 82% Calm Calm -- 28.91 in979.0 mb 0.00 in0.0 mm 0.00 in0.0 mm 0.12 in3.0 mm
02:30 AM 67.3°F19.6°C 61.2°F16.2°C 81% Calm Calm -- 28.91 in979.0 mb 0.00 in0.0 mm 0.00 in0.0 mm 0.12 in3.0 mm
02:20 AM 67.3°F19.6°C 61.2°F16.2°C 81% Calm Calm -- 28.91 in979.0 mb 0.00 in0.0 mm 0.00 in0.0 mm 0.12 in3.0 mm
02:10 AM 67.3°F19.6°C 61.2°F16.2°C 81% Calm Calm -- 28.88 in978.0 mb 0.00 in0.0 mm 0.00 in0.0 mm 0.12 in3.0 mm
02:00 AM 67.3°F19.6°C 60.5°F15.8°C 79% Calm Calm -- 28.88 in978.0 mb 0.00 in0.0 mm 0.00 in0.0 mm 0.12 in3.0 mm
01:50 AM 67.1°F19.5°C 60.4°F15.8°C 79% Calm Calm -- 28.91 in979.0 mb 0.00 in0.0 mm 0.00 in0.0 mm 0.12 in3.0 mm
01:40 AM 66.9°F19.4°C 60.2°F15.7°C 79% Calm Calm -- 28.91 in979.0 mb 0.00 in0.0 mm 0.00 in0.0 mm 0.12 in3.0 mm
01:30 AM 67.1°F19.5°C 60.4°F15.8°C 79% Calm Calm -- 28.91 in979.0 mb 0.00 in0.0 mm 0.00 in0.0 mm 0.12 in3.0 mm
01:20 AM 66.7°F19.3°C 59.7°F15.4°C 78% Calm Calm -- 28.91 in979.0 mb 0.00 in0.0 mm 0.00 in0.0 mm 0.12 in3.0 mm
01:10 AM 67.1°F19.5°C 60.4°F15.8°C 79% Calm Calm -- 28.91 in979.0 mb 0.00 in0.0 mm 0.00 in0.0 mm 0.12 in3.0 mm
01:00 AM 67.1°F19.5°C 60.0°F15.6°C 78% Calm Calm -- 28.91 in979.0 mb 0.00 in0.0 mm 0.00 in0.0 mm 0.12 in3.0 mm
12:50 AM 67.5°F19.7°C 60.7°F15.9°C 79% Calm Calm -- 28.91 in979.0 mb 0.00 in0.0 mm 0.00 in0.0 mm 0.12 in3.0 mm
12:40 AM 67.1°F19.5°C 60.7°F15.9°C 80% Calm Calm -- 28.91 in979.0 mb 0.04 in1.0 mm 0.00 in0.0 mm 0.12 in3.0 mm
12:30 AM 67.1°F19.5°C 60.4°F15.8°C 79% Calm Calm -- 28.91 in979.0 mb 0.08 in2.0 mm 0.00 in0.0 mm 0.12 in3.0 mm
12:20 AM 66.6°F19.2°C 59.5°F15.3°C 78% Calm Calm -- 28.91 in979.0 mb 0.08 in2.0 mm 0.00 in0.0 mm 0.12 in3.0 mm
12:10 AM 67.1°F19.5°C 60.4°F15.8°C 79% Calm Calm -- 28.88 in978.0 mb 0.08 in2.0 mm 0.00 in0.0 mm 0.12 in3.0 mm
12:00 AM 67.6°F19.8°C 59.4°F15.2°C 75% Calm Calm -- 28.88 in978.0 mb 0.12 in3.0 mm 0.00 in0.0 mm 0.12 in3.0 mm